Time;durP1;ratioP1;P1;durP2;ratioP2;P2;SDS_P1;SDS_P2;PMS_P1;PMS_P2;Temp;Humidity;BMP_temperature;BMP_pressure;BME280_temperature;BME280_humidity;BME280_pressure;Samples;Min_cycle;Max_cycle;Signal;HPM_P1;HPM_P2
2022/11/10 00:02:01;;;;;;;36.27;34.23;;;;;;;9.41;100.00;101078.06;5034652;28;20463;-44
2022/11/10 00:04:28;;;;;;;35.20;33.50;;;;;;;9.38;100.00;101078.44;5034610;28;20436;-45
2022/11/10 00:06:56;;;;;;;35.90;33.90;;;;;;;9.35;100.00;101073.47;5034827;28;20562;-46
2022/11/10 00:09:25;;;;;;;35.53;33.53;;;;;;;9.31;100.00;101081.03;5035067;28;20440;-45
2022/11/10 00:11:53;;;;;;;34.30;31.77;;;;;;;9.28;100.00;101091.19;5034664;28;20509;-44
2022/11/10 00:17:05;;;;;;;34.30;32.20;;;;;;;9.24;100.00;101097.88;5034697;28;20943;-44
2022/11/10 00:19:34;;;;;;;34.60;32.43;;;;;;;9.20;100.00;101110.69;5034880;28;20432;-46
2022/11/10 00:22:02;;;;;;;33.93;32.13;;;;;;;9.19;100.00;101106.41;5023385;28;20577;-45
2022/11/10 00:24:31;;;;;;;33.40;31.70;;;;;;;9.19;100.00;101114.38;5032000;28;20514;-45
2022/11/10 00:26:59;;;;;;;34.97;32.33;;;;;;;9.16;100.00;101125.38;5034654;28;20431;-44
2022/11/10 00:29:26;;;;;;;35.07;32.67;;;;;;;9.17;100.00;101118.22;5034520;28;20497;-44
2022/11/10 00:31:54;;;;;;;33.23;31.50;;;;;;;9.16;100.00;101128.03;5034098;28;21078;-47
2022/11/10 00:34:21;;;;;;;36.50;33.70;;;;;;;9.15;100.00;101130.88;5033868;28;20486;-44
2022/11/10 00:36:49;;;;;;;34.77;32.40;;;;;;;9.14;100.00;101129.22;5034560;28;20494;-44
2022/11/10 00:39:17;;;;;;;33.80;32.00;;;;;;;9.11;100.00;101135.72;5034456;28;20486;-44
2022/11/10 00:41:45;;;;;;;36.40;33.40;;;;;;;9.09;100.00;101155.53;5034078;28;20518;-47
2022/11/10 00:44:13;;;;;;;34.93;33.03;;;;;;;9.06;100.00;101140.75;5034445;28;20437;-45
2022/11/10 00:46:41;;;;;;;35.53;33.17;;;;;;;9.03;100.00;101154.41;5034434;28;20848;-44
2022/11/10 00:49:08;;;;;;;35.40;33.03;;;;;;;9.03;100.00;101157.06;5034092;28;20525;-44
2022/11/10 00:51:36;;;;;;;35.70;33.03;;;;;;;9.03;100.00;101153.56;5033913;28;20864;-44
2022/11/10 00:54:04;;;;;;;34.50;32.70;;;;;;;9.08;100.00;101162.66;5033995;28;20435;-44
2022/11/10 00:56:31;;;;;;;37.70;34.03;;;;;;;9.13;100.00;101167.47;5034047;28;20816;-44
2022/11/10 00:59:00;;;;;;;35.57;33.30;;;;;;;9.14;100.00;101172.59;5033608;28;20471;-47
2022/11/10 01:01:28;;;;;;;36.17;34.07;;;;;;;9.17;100.00;101164.28;5033665;28;20810;-45
2022/11/10 01:03:56;;;;;;;35.47;33.03;;;;;;;9.21;100.00;101168.25;5034182;28;20432;-44
2022/11/10 01:06:23;;;;;;;35.23;32.93;;;;;;;9.23;100.00;101182.19;5033342;28;20506;-45
2022/11/10 01:08:51;;;;;;;35.37;32.47;;;;;;;9.25;100.00;101182.84;5033791;28;20475;-45
2022/11/10 01:11:20;;;;;;;36.13;33.23;;;;;;;9.28;100.00;101185.16;5033602;28;20460;-48
2022/11/10 01:13:50;;;;;;;35.23;33.07;;;;;;;9.32;100.00;101189.13;5033896;28;20428;-46
2022/11/10 01:16:21;;;;;;;35.73;32.97;;;;;;;9.33;100.00;101198.75;5033480;28;20460;-48
2022/11/10 01:18:49;;;;;;;36.07;33.53;;;;;;;9.36;100.00;101203.72;5034087;28;20428;-44
2022/11/10 01:21:17;;;;;;;35.50;33.27;;;;;;;9.37;100.00;101194.75;5027936;28;20464;-49
2022/11/10 01:23:45;;;;;;;35.53;33.07;;;;;;;9.38;100.00;101203.53;5017284;28;20486;-46
2022/11/10 01:26:13;;;;;;;36.90;34.70;;;;;;;9.38;100.00;101208.88;5033228;28;20468;-44
2022/11/10 01:28:41;;;;;;;37.63;35.10;;;;;;;9.36;100.00;101214.38;5033431;28;20526;-44
2022/11/10 01:31:11;;;;;;;36.23;33.70;;;;;;;9.38;100.00;101231.00;5033196;28;20471;-44
2022/11/10 01:33:39;;;;;;;36.33;33.77;;;;;;;9.42;100.00;101234.13;5033499;28;20424;-44
2022/11/10 01:36:09;;;;;;;35.57;32.90;;;;;;;9.47;100.00;101237.09;5032739;28;20996;-44
2022/11/10 01:38:38;;;;;;;36.87;34.43;;;;;;;9.50;100.00;101242.06;5033163;28;20980;-44
2022/11/10 01:41:10;;;;;;;36.57;34.10;;;;;;;9.53;100.00;101239.03;5032912;28;21050;-45
2022/11/10 01:43:38;;;;;;;38.03;34.87;;;;;;;9.55;100.00;101234.38;5033461;28;20490;-47
2022/11/10 01:46:07;;;;;;;36.63;34.53;;;;;;;9.57;100.00;101237.69;5032594;28;20514;-44
2022/11/10 01:48:39;;;;;;;38.33;35.47;;;;;;;9.58;100.00;101236.69;5032971;28;20476;-44
2022/11/10 01:51:13;;;;;;;36.93;34.43;;;;;;;9.58;100.00;101243.84;5032900;28;20977;-44
2022/11/10 01:53:44;;;;;;;35.27;33.07;;;;;;;9.53;100.00;101240.91;5033229;28;20429;-48
2022/11/10 01:56:13;;;;;;;35.90;33.50;;;;;;;9.48;100.00;101235.25;5032628;28;20522;-45
2022/11/10 01:58:44;;;;;;;36.67;33.90;;;;;;;9.41;100.00;101243.94;5033336;28;20425;-45
2022/11/10 02:01:12;;;;;;;35.17;32.60;;;;;;;9.36;100.00;101245.47;5032808;28;20467;-47
2022/11/10 02:03:45;;;;;;;36.27;33.23;;;;;;;9.31;100.00;101250.50;5033385;28;20462;-47
2022/11/10 02:06:16;;;;;;;34.40;32.20;;;;;;;9.24;100.00;101253.03;5032342;28;20993;-50
2022/11/10 02:08:45;;;;;;;36.43;33.77;;;;;;;9.18;100.00;101253.75;5032300;28;20517;-44
2022/11/10 02:11:13;;;;;;;35.63;33.40;;;;;;;9.13;100.00;101249.97;5032316;28;20792;-45
2022/11/10 02:13:41;;;;;;;36.80;33.73;;;;;;;9.09;100.00;101260.13;5032701;28;20435;-47
2022/11/10 02:16:09;;;;;;;35.40;33.27;;;;;;;9.06;100.00;101260.47;5032619;28;20468;-50
2022/11/10 02:18:37;;;;;;;35.37;32.90;;;;;;;9.06;100.00;101264.94;5032482;28;20929;-52
2022/11/10 02:21:07;;;;;;;35.77;33.50;;;;;;;9.06;100.00;101264.94;5026892;28;20460;-53
2022/11/10 02:23:47;;;;;;;34.60;32.20;;;;;;;9.05;100.00;101265.97;5024379;28;20431;-53
2022/11/10 02:26:18;;;;;;;36.97;34.80;;;;;;;9.04;100.00;101267.78;5032080;28;20459;-51
2022/11/10 02:28:45;;;;;;;36.40;33.50;;;;;;;9.00;100.00;101262.97;5032547;28;20476;-51
2022/11/10 02:31:13;;;;;;;35.77;33.30;;;;;;;8.96;100.00;101275.00;5032360;28;20587;-53
2022/11/10 02:33:41;;;;;;;34.87;32.87;;;;;;;8.92;100.00;101274.50;5032325;28;20436;-53
2022/11/10 02:36:10;;;;;;;36.50;33.00;;;;;;;8.92;100.00;101297.59;5031858;28;20464;-53
2022/11/10 02:38:37;;;;;;;36.07;33.90;;;;;;;8.96;100.00;101294.41;5032192;28;20436;-51
2022/11/10 02:41:05;;;;;;;35.53;32.47;;;;;;;9.01;100.00;101288.59;5031785;28;21116;-52
2022/11/10 02:43:33;;;;;;;35.50;32.70;;;;;;;9.04;100.00;101286.41;5032414;28;20436;-48
2022/11/10 02:46:01;;;;;;;34.17;31.87;;;;;;;9.08;100.00;101286.91;5031787;28;20494;-47
2022/11/10 02:48:28;;;;;;;34.70;31.70;;;;;;;9.11;100.00;101291.88;5032167;28;20475;-50
2022/11/10 02:50:56;;;;;;;34.40;32.20;;;;;;;9.16;100.00;101302.81;5031763;28;20518;-47
2022/11/10 02:53:25;;;;;;;34.03;31.67;;;;;;;9.20;100.00;101304.94;5031951;28;20849;-51
2022/11/10 02:55:52;;;;;;;35.93;33.30;;;;;;;9.24;100.00;101303.63;5031462;28;20464;-45
2022/11/10 02:58:20;;;;;;;34.23;31.87;;;;;;;9.28;100.00;101304.94;5031976;28;20432;-46
2022/11/10 03:00:47;;;;;;;36.73;33.47;;;;;;;9.30;100.00;101313.56;5031583;28;20463;-49
2022/11/10 03:03:15;;;;;;;35.00;32.30;;;;;;;9.29;100.00;101309.22;5032007;28;20845;-47
2022/11/10 03:05:42;;;;;;;34.70;32.37;;;;;;;9.27;100.00;101308.59;5031312;28;20522;-47
2022/11/10 03:08:10;;;;;;;34.97;32.47;;;;;;;9.23;100.00;101315.25;5031794;28;20466;-48
2022/11/10 03:10:39;;;;;;;34.47;32.47;;;;;;;9.21;100.00;101317.25;5031771;28;20590;-48
2022/11/10 03:13:07;;;;;;;34.57;32.30;;;;;;;9.17;100.00;101328.44;5031744;28;20431;-46
2022/11/10 03:15:35;;;;;;;36.13;33.87;;;;;;;9.15;100.00;101325.94;5031330;28;20460;-46
2022/11/10 03:18:03;;;;;;;35.60;33.10;;;;;;;9.15;100.00;101322.44;5031719;28;20463;-46
2022/11/10 03:20:31;;;;;;;36.57;33.80;;;;;;;9.11;100.00;101319.28;5025916;28;20441;-48
2022/11/10 03:23:03;;;;;;;35.00;32.70;;;;;;;9.08;100.00;101316.97;5023151;28;20459;-45
2022/11/10 03:25:31;;;;;;;35.13;32.23;;;;;;;9.05;100.00;101319.19;5031206;28;20479;-45
2022/11/10 03:28:00;;;;;;;33.77;31.03;;;;;;;9.02;100.00;101328.31;5031836;28;20490;-51
2022/11/10 03:30:27;;;;;;;36.70;32.93;;;;;;;9.01;100.00;101321.34;5031445;28;20480;-49
2022/11/10 03:32:55;;;;;;;33.47;31.33;;;;;;;8.98;100.00;101327.00;5031446;28;20490;-46
2022/11/10 03:35:23;;;;;;;34.57;31.93;;;;;;;8.98;100.00;101327.00;5030992;28;20969;-47
2022/11/10 03:37:50;;;;;;;34.80;32.10;;;;;;;8.98;100.00;101336.81;5031701;28;20440;-52
2022/11/10 03:40:18;;;;;;;36.10;33.17;;;;;;;8.98;100.00;101342.97;5031442;28;20957;-47
2022/11/10 03:42:46;;;;;;;35.80;33.30;;;;;;;8.98;100.00;101345.63;5031175;28;20490;-52
2022/11/10 03:45:15;;;;;;;35.67;33.07;;;;;;;9.02;100.00;101357.56;5031139;28;20463;-45
2022/11/10 03:47:46;;;;;;;36.27;33.00;;;;;;;9.04;100.00;101362.75;5031328;28;20490;-46
2022/11/10 03:50:14;;;;;;;35.07;32.40;;;;;;;9.06;100.00;101368.69;5031532;28;20529;-49
2022/11/10 03:52:43;;;;;;;35.83;32.93;;;;;;;9.06;100.00;101366.88;5031195;28;20507;-44
2022/11/10 03:55:12;;;;;;;35.10;32.60;;;;;;;9.04;100.00;101378.69;5031056;28;20510;-47
2022/11/10 03:57:40;;;;;;;35.40;32.60;;;;;;;9.03;100.00;101377.88;5031373;28;20432;-45
2022/11/10 04:00:09;;;;;;;34.67;32.27;;;;;;;8.99;100.00;101367.75;5031252;28;20432;-50
2022/11/10 04:02:39;;;;;;;35.83;32.93;;;;;;;8.95;100.00;101367.25;5031107;28;20877;-53
2022/11/10 04:10:45;;;;;;;35.40;32.77;;;;;;;8.80;100.00;101371.63;5030825;28;20476;-45
2022/11/10 04:15:58;;;;;;;34.80;32.17;;;;;;;8.76;100.00;101386.25;5030912;28;20506;-50
2022/11/10 04:18:28;;;;;;;33.87;31.10;;;;;;;8.76;100.00;101391.56;5031202;28;20432;-46
2022/11/10 04:20:58;;;;;;;35.10;32.50;;;;;;;8.76;100.00;101389.72;5025488;28;20456;-51
2022/11/10 04:23:28;;;;;;;33.43;30.83;;;;;;;8.77;100.00;101388.75;5023023;28;20486;-49
2022/11/10 04:28:44;;;;;;;33.33;30.93;;;;;;;8.76;100.00;101383.59;5031619;28;20494;-49
2022/11/10 04:31:13;;;;;;;34.50;31.80;;;;;;;8.75;100.00;101404.00;5030651;28;20476;-48
2022/11/10 04:33:42;;;;;;;35.13;32.60;;;;;;;8.74;100.00;101404.19;5033568;28;20432;-50
2022/11/10 04:36:12;;;;;;;35.27;32.67;;;;;;;8.73;100.00;101411.34;5034032;28;20514;-45
2022/11/10 04:38:39;;;;;;;34.90;32.40;;;;;;;8.73;100.00;101418.47;5034639;28;20478;-46
2022/11/10 04:41:07;;;;;;;36.57;34.17;;;;;;;8.71;100.00;101429.31;5034293;28;20455;-50
2022/11/10 04:43:35;;;;;;;34.07;31.60;;;;;;;8.70;100.00;101427.63;5034561;28;20436;-48
2022/11/10 04:46:04;;;;;;;33.70;31.10;;;;;;;8.69;100.00;101427.81;5034015;28;20463;-53
2022/11/10 04:48:34;;;;;;;33.50;31.23;;;;;;;8.67;100.00;101432.44;5034515;28;20478;-52
2022/11/10 04:51:05;;;;;;;33.77;30.83;;;;;;;8.67;100.00;101435.09;5034061;28;20537;-47
2022/11/10 04:53:33;;;;;;;33.77;31.33;;;;;;;8.70;100.00;101442.75;5034555;28;20837;-47
2022/11/10 04:56:00;;;;;;;36.10;33.20;;;;;;;8.72;100.00;101448.75;5033918;28;20586;-50
2022/11/10 04:58:28;;;;;;;33.87;31.90;;;;;;;8.77;100.00;101435.78;5034120;28;20436;-46
2022/11/10 05:00:56;;;;;;;35.77;33.13;;;;;;;8.83;100.00;101445.75;5033930;28;20521;-50
2022/11/10 05:03:25;;;;;;;36.33;33.17;;;;;;;8.89;100.00;101445.06;5034255;28;20957;-50
2022/11/10 05:05:52;;;;;;;37.40;34.90;;;;;;;8.92;100.00;101452.72;5033970;28;20543;-48
2022/11/10 05:08:21;;;;;;;37.63;34.90;;;;;;;8.93;100.00;101451.69;5034127;28;20428;-52
2022/11/10 05:10:49;;;;;;;36.17;33.57;;;;;;;8.98;100.00;101459.19;5033518;28;20475;-51
2022/11/10 05:13:17;;;;;;;36.33;33.53;;;;;;;8.99;100.00;101466.97;5033832;28;20797;-54
2022/11/10 05:15:45;;;;;;;36.10;33.33;;;;;;;9.03;100.00;101476.31;5033530;28;20465;-52
2022/11/10 05:18:13;;;;;;;36.37;33.47;;;;;;;9.08;100.00;101467.81;5033874;28;20490;-50
2022/11/10 05:20:40;;;;;;;40.20;33.50;;;;;;;9.12;100.00;101477.13;5028265;28;20432;-50
2022/11/10 05:25:54;;;;;;;35.80;33.07;;;;;;;9.17;100.00;101483.59;5033164;28;20472;-54
2022/11/10 05:28:23;;;;;;;35.20;32.93;;;;;;;9.18;100.00;101487.91;5033947;28;20440;-51
2022/11/10 05:30:50;;;;;;;36.33;33.40;;;;;;;9.21;100.00;101476.94;5033329;28;20522;-53
2022/11/10 05:33:18;;;;;;;36.10;33.70;;;;;;;9.22;100.00;101478.59;5033567;28;20479;-51
2022/11/10 05:35:48;;;;;;;36.93;34.40;;;;;;;9.25;100.00;101480.09;5032985;28;20558;-54
2022/11/10 05:38:16;;;;;;;37.43;34.97;;;;;;;9.26;100.00;101479.91;5033400;28;20510;-54
2022/11/10 05:40:44;;;;;;;37.67;34.97;;;;;;;9.26;100.00;101479.91;5033348;28;20460;-51
2022/11/10 05:43:13;;;;;;;37.27;34.43;;;;;;;9.26;100.00;101484.38;5033329;28;20849;-50
2022/11/10 05:45:40;;;;;;;36.73;33.70;;;;;;;9.26;100.00;101485.22;5032099;28;20885;-53
2022/11/10 05:48:08;;;;;;;36.60;34.03;;;;;;;9.26;100.00;101485.22;5033304;28;20436;-53
2022/11/10 05:50:36;;;;;;;36.33;33.63;;;;;;;9.26;100.00;101490.56;5032908;28;20472;-51
2022/11/10 05:53:03;;;;;;;37.97;34.57;;;;;;;9.25;100.00;101499.56;5033196;28;20493;-52
2022/11/10 05:55:31;;;;;;;37.27;34.50;;;;;;;9.23;100.00;101509.53;5032756;28;20514;-51
2022/11/10 05:57:59;;;;;;;36.83;33.70;;;;;;;9.24;100.00;101521.84;5033322;28;20471;-50
2022/11/10 06:00:30;;;;;;;38.73;35.83;;;;;;;9.23;100.00;101514.00;5032948;28;20502;-51
2022/11/10 06:03:02;;;;;;;37.23;34.77;;;;;;;9.22;100.00;101515.03;5032646;28;20423;-46
2022/11/10 06:05:31;;;;;;;37.77;34.80;;;;;;;9.21;100.00;101540.81;5032583;28;20522;-52
2022/11/10 06:07:59;;;;;;;37.57;35.27;;;;;;;9.21;100.00;101530.16;5033148;28;20436;-49
2022/11/10 06:10:27;;;;;;;39.23;36.40;;;;;;;9.24;100.00;101535.16;5032573;28;20476;-48
2022/11/10 06:12:55;;;;;;;42.30;38.90;;;;;;;9.29;100.00;101543.44;5032480;28;21008;-50
2022/11/10 06:15:23;;;;;;;39.47;36.57;;;;;;;9.34;100.00;101542.94;5032486;28;20515;-54
2022/11/10 06:17:52;;;;;;;40.20;37.17;;;;;;;9.38;100.00;101545.09;5032875;28;20428;-51
2022/11/10 06:20:21;;;;;;;43.40;40.20;;;;;;;9.41;100.00;101552.75;5027570;28;20827;-55
2022/11/10 06:22:59;;;;;;;44.43;39.90;;;;;;;9.47;100.00;101555.75;5024180;28;20845;-51
2022/11/10 06:25:29;;;;;;;43.27;39.77;;;;;;;9.51;100.00;101570.38;5032015;28;20478;-55
2022/11/10 06:27:56;;;;;;;47.80;42.70;;;;;;;9.51;100.00;101565.88;5032467;28;20432;-51
2022/11/10 06:30:24;;;;;;;44.90;41.23;;;;;;;9.53;100.00;101576.38;5032456;28;20553;-53
2022/11/10 06:32:54;;;;;;;45.27;41.37;;;;;;;9.54;100.00;101586.00;5032358;28;20436;-54
2022/11/10 06:35:22;;;;;;;44.07;40.47;;;;;;;9.59;100.00;101581.03;5031754;28;20472;-50
2022/11/10 06:38:00;;;;;;;48.33;43.80;;;;;;;9.59;100.00;101587.16;5032186;28;20462;-53
2022/11/10 06:40:29;;;;;;;45.23;41.40;;;;;;;9.61;100.00;101589.66;5032062;28;21003;-55
2022/11/10 06:42:57;;;;;;;45.87;41.63;;;;;;;9.62;100.00;101600.13;5032237;28;20494;-55
2022/11/10 06:45:27;;;;;;;46.57;42.07;;;;;;;9.66;100.00;101604.13;5031714;28;21021;-52
2022/11/10 06:48:03;;;;;;;47.50;42.80;;;;;;;9.69;100.00;101605.63;5032252;28;20432;-50
2022/11/10 06:50:31;;;;;;;47.87;43.47;;;;;;;9.71;100.00;101596.44;5032276;28;20510;-54
2022/11/10 06:53:00;;;;;;;47.83;43.30;;;;;;;9.74;100.00;101600.59;5031750;28;20490;-54
2022/11/10 06:55:28;;;;;;;47.67;43.73;;;;;;;9.78;100.00;101610.75;5031091;28;20981;-53
2022/11/10 06:57:56;;;;;;;47.83;43.43;;;;;;;9.79;100.00;101611.59;5032156;28;20427;-48
2022/11/10 07:00:24;;;;;;;48.20;43.57;;;;;;;9.82;100.00;101613.91;5031952;28;20684;-51
2022/11/10 07:02:59;;;;;;;46.57;42.57;;;;;;;9.83;100.00;101618.22;5031976;28;20424;-46
2022/11/10 07:05:28;;;;;;;47.20;42.97;;;;;;;9.86;100.00;101625.88;5031481;28;20459;-51
2022/11/10 07:07:56;;;;;;;44.93;40.83;;;;;;;9.86;100.00;101633.88;5031778;28;20494;-49
2022/11/10 07:10:23;;;;;;;48.00;41.33;;;;;;;9.91;100.00;101636.88;5031653;28;20490;-51
2022/11/10 07:12:56;;;;;;;45.07;41.60;;;;;;;9.93;100.00;101637.53;5031532;28;20490;-51
2022/11/10 07:15:24;;;;;;;45.30;41.30;;;;;;;9.97;100.00;101641.53;5031482;28;20464;-53
2022/11/10 07:17:52;;;;;;;45.80;41.60;;;;;;;9.97;100.00;101631.66;5031751;28;20467;-54
2022/11/10 07:20:20;;;;;;;46.53;42.30;;;;;;;9.98;100.00;101637.84;5026296;28;20440;-49
2022/11/10 07:22:49;;;;;;;47.40;42.30;;;;;;;9.97;100.00;101645.00;5023421;28;20869;-50
2022/11/10 07:25:17;;;;;;;47.60;42.67;;;;;;;9.97;100.00;101662.84;5031532;28;20842;-55
2022/11/10 07:27:44;;;;;;;45.50;41.30;;;;;;;9.97;100.00;101662.84;5031665;28;20432;-54
2022/11/10 07:30:13;;;;;;;47.37;43.00;;;;;;;9.98;100.00;101667.16;5031548;28;20436;-54
2022/11/10 07:32:40;;;;;;;45.70;41.67;;;;;;;10.01;100.00;101664.16;5031386;28;20483;-54
2022/11/10 07:35:08;;;;;;;44.80;41.23;;;;;;;10.04;100.00;101655.81;5030919;28;20997;-55
2022/11/10 07:37:36;;;;;;;47.13;43.03;;;;;;;10.05;100.00;101661.97;5031734;28;20490;-54
2022/11/10 07:40:06;;;;;;;44.90;41.03;;;;;;;10.06;100.00;101669.81;5031587;28;20440;-50
2022/11/10 07:42:39;;;;;;;46.63;41.70;;;;;;;10.08;100.00;101686.47;5031325;28;20807;-50
2022/11/10 07:45:08;;;;;;;45.57;41.17;;;;;;;10.12;100.00;101684.28;5030853;28;20468;-48
2022/11/10 07:47:35;;;;;;;44.43;40.57;;;;;;;10.14;100.00;101685.81;5031762;28;20439;-52
2022/11/10 07:50:03;;;;;;;44.40;40.30;;;;;;;10.20;100.00;101689.63;5031578;28;20440;-53
2022/11/10 07:52:31;;;;;;;42.83;39.07;;;;;;;10.22;100.00;101687.59;5031267;28;20475;-55
2022/11/10 07:54:58;;;;;;;43.10;39.13;;;;;;;10.26;100.00;101687.09;5031031;28;20487;-52
2022/11/10 07:57:27;;;;;;;44.47;40.40;;;;;;;10.31;100.00;101681.25;5031326;28;20468;-52
2022/11/10 07:59:55;;;;;;;45.23;41.53;;;;;;;10.30;100.00;101676.94;5031115;28;20466;-53
2022/11/10 08:02:25;;;;;;;44.17;40.43;;;;;;;10.30;100.00;101669.78;5031110;28;20460;-47
2022/11/10 08:04:52;;;;;;;43.27;39.70;;;;;;;10.33;100.00;101671.25;5030791;28;20459;-54
2022/11/10 08:07:20;;;;;;;45.83;41.80;;;;;;;10.37;100.00;101669.91;5032042;28;20501;-51
2022/11/10 08:09:47;;;;;;;44.30;40.30;;;;;;;10.46;100.00;101682.19;5035161;28;20697;-47
2022/11/10 08:12:15;;;;;;;44.03;39.50;;;;;;;10.55;100.00;101683.81;5034590;28;20989;-47
2022/11/10 08:14:44;;;;;;;43.63;39.80;;;;;;;10.62;100.00;101690.13;5034398;28;20459;-49
2022/11/10 08:17:11;;;;;;;41.87;37.93;;;;;;;10.70;100.00;101706.09;5035423;28;20436;-50
2022/11/10 08:19:39;;;;;;;43.73;40.07;;;;;;;10.80;100.00;101698.72;5034914;28;20443;-50
2022/11/10 08:22:07;;;;;;;45.00;41.40;;;;;;;10.91;100.00;101713.50;5017708;28;20507;-46
2022/11/10 08:24:34;;;;;;;44.37;40.70;;;;;;;10.93;100.00;101714.97;5032876;28;21000;-47
2022/11/10 08:27:02;;;;;;;47.10;42.90;;;;;;;10.98;100.00;101701.97;5034559;28;20490;-46
2022/11/10 08:29:29;;;;;;;44.73;40.73;;;;;;;10.98;100.00;101698.44;5034821;28;20428;-47
2022/11/10 08:31:58;;;;;;;46.00;42.00;;;;;;;11.00;100.00;101701.75;5034373;28;20534;-48
2022/11/10 08:34:26;;;;;;;42.50;39.30;;;;;;;11.05;100.00;101699.41;5034209;28;20431;-46
2022/11/10 08:36:53;;;;;;;43.53;39.63;;;;;;;11.14;100.00;101698.31;5034502;28;20489;-46
2022/11/10 08:39:21;;;;;;;45.63;41.70;;;;;;;11.19;100.00;101701.31;5034419;28;20494;-46
2022/11/10 08:42:06;;;;;;;44.20;40.30;;;;;;;11.24;100.00;101708.78;5034199;28;20468;-46
2022/11/10 08:44:33;;;;;;;44.60;40.77;;;;;;;11.25;100.00;101716.63;5034094;28;20506;-52
2022/11/10 08:47:02;;;;;;;43.93;40.33;;;;;;;11.23;100.00;101712.47;5034368;28;20428;-49
2022/11/10 08:49:30;;;;;;;43.07;39.40;;;;;;;11.22;100.00;101713.47;5034330;28;20427;-46
2022/11/10 08:51:57;;;;;;;43.60;40.10;;;;;;;11.22;100.00;101721.50;5033787;28;20483;-49
2022/11/10 08:54:25;;;;;;;46.57;42.93;;;;;;;11.17;100.00;101719.34;5033912;28;20881;-53
2022/11/10 08:56:53;;;;;;;47.10;42.90;;;;;;;11.15;100.00;101726.69;5034254;28;20858;-48
2022/11/10 08:59:21;;;;;;;47.13;42.77;;;;;;;11.13;100.00;101723.38;5034137;28;20440;-48
2022/11/10 09:01:48;;;;;;;46.87;42.80;;;;;;;11.11;100.00;101734.22;5033855;28;20534;-51
2022/11/10 09:04:17;;;;;;;45.00;40.87;;;;;;;11.14;100.00;101743.72;5033349;28;20506;-47
2022/11/10 09:06:45;;;;;;;45.70;42.30;;;;;;;11.20;100.00;101745.69;5034261;28;20439;-49
2022/11/10 09:09:12;;;;;;;46.90;42.60;;;;;;;11.24;100.00;101740.81;5034199;28;20432;-47
2022/11/10 09:11:40;;;;;;;46.60;42.80;;;;;;;11.31;100.00;101742.63;5033579;28;20483;-46
2022/11/10 09:14:08;;;;;;;44.97;41.60;;;;;;;11.34;100.00;101742.28;5033973;28;20440;-47
2022/11/10 09:16:35;;;;;;;44.07;40.53;;;;;;;11.35;100.00;101732.44;5033641;28;20991;-51
2022/11/10 09:19:03;;;;;;;46.87;42.83;;;;;;;11.34;100.00;101738.78;5033698;28;20778;-51
2022/11/10 09:21:32;;;;;;;47.43;42.80;;;;;;;11.37;100.00;101746.44;5026631;28;20505;-51
2022/11/10 09:23:59;;;;;;;44.10;40.60;;;;;;;11.38;100.00;101743.56;5027593;28;20486;-48
2022/11/10 09:26:27;;;;;;;46.23;42.23;;;;;;;11.43;100.00;101749.22;5033096;28;20519;-46
2022/11/10 09:28:54;;;;;;;44.00;40.60;;;;;;;11.47;100.00;101753.19;5033600;28;20941;-52
2022/11/10 09:31:22;;;;;;;42.20;38.97;;;;;;;11.51;100.00;101742.97;5033117;28;20448;-50
2022/11/10 09:33:50;;;;;;;43.60;39.70;;;;;;;11.56;100.00;101754.78;5033809;28;20432;-52
2022/11/10 09:36:17;;;;;;;44.47;40.67;;;;;;;11.65;100.00;101748.38;5033038;28;20460;-48
2022/11/10 09:38:46;;;;;;;43.80;40.20;;;;;;;11.70;100.00;101763.06;5033591;28;20432;-50
2022/11/10 09:41:15;;;;;;;45.80;41.53;;;;;;;11.72;100.00;101761.06;5033037;28;20506;-47
2022/11/10 09:43:48;;;;;;;46.97;42.77;;;;;;;11.72;100.00;101777.91;5033490;28;20428;-48
2022/11/10 09:46:20;;;;;;;44.13;40.50;;;;;;;11.75;100.00;101782.06;5032996;28;20468;-48
2022/11/10 09:48:50;;;;;;;43.70;40.03;;;;;;;11.76;100.00;101792.59;5033428;28;20837;-52
2022/11/10 09:51:23;;;;;;;43.70;39.80;;;;;;;11.85;100.00;101798.69;5033087;28;20460;-49
2022/11/10 09:53:57;;;;;;;43.93;40.10;;;;;;;11.88;100.00;101807.19;5033179;28;20598;-46
2022/11/10 09:56:32;;;;;;;42.90;39.90;;;;;;;11.95;100.00;101809.97;5032278;28;20464;-50
2022/11/10 09:59:03;;;;;;;43.87;40.57;;;;;;;11.99;100.00;101804.09;5033216;28;20482;-50
2022/11/10 10:01:37;;;;;;;41.73;38.60;;;;;;;12.01;100.00;101812.75;5032732;28;20468;-47
2022/11/10 10:04:18;;;;;;;42.57;39.23;;;;;;;12.07;100.00;101808.53;5032877;28;20468;-46
2022/11/10 10:06:57;;;;;;;43.53;40.00;;;;;;;12.14;100.00;101809.47;5032603;28;20429;-47
2022/11/10 10:09:51;;;;;;;42.33;38.87;;;;;;;12.22;100.00;101809.41;5032815;28;20498;-46
2022/11/10 10:12:32;;;;;;;42.03;38.80;;;;;;;12.32;100.00;101801.97;5032374;28;21002;-46
2022/11/10 10:15:15;;;;;;;42.07;38.97;;;;;;;12.45;100.00;101818.22;5032285;28;20981;-51
2022/11/10 10:17:53;;;;;;;43.57;40.23;;;;;;;12.53;100.00;101815.47;5033015;28;20829;-47
2022/11/10 10:20:28;;;;;;;42.97;39.77;;;;;;;12.55;100.00;101802.72;5027418;28;20842;-48
2022/11/10 10:23:14;;;;;;;44.73;40.83;;;;;;;12.62;100.00;101800.13;5024157;28;20424;-50
2022/11/10 10:25:45;;;;;;;46.67;42.20;;;;;;;12.66;100.00;101820.97;5031912;28;20467;-48
2022/11/10 10:28:22;;;;;;;46.27;41.40;;;;;;;12.68;100.00;101823.50;5032465;28;20486;-50
2022/11/10 10:30:51;;;;;;;44.70;40.50;;;;;;;12.77;100.00;101823.22;5031634;28;20499;-48
2022/11/10 10:33:22;;;;;;;43.50;40.03;;;;;;;12.81;100.00;101815.66;5032307;28;20993;-45
2022/11/10 10:35:50;;;;;;;42.03;38.77;;;;;;;12.92;100.00;101815.19;5031957;28;20472;-51
2022/11/10 10:38:24;;;;;;;43.53;39.47;;;;;;;12.99;100.00;101813.41;5032466;28;20779;-49
2022/11/10 10:40:58;;;;;;;42.70;39.27;;;;;;;12.92;100.00;101825.88;5032140;28;20499;-50
2022/11/10 10:43:26;;;;;;;42.87;39.30;;;;;;;12.93;100.00;101826.72;5032186;28;20916;-46
2022/11/10 10:46:05;;;;;;;42.53;38.77;;;;;;;13.03;100.00;101817.38;5031723;28;20464;-45
2022/11/10 10:48:33;;;;;;;42.13;38.60;;;;;;;12.91;100.00;101824.22;5032529;28;20428;-53
2022/11/10 10:51:00;;;;;;;44.23;40.40;;;;;;;12.97;100.00;101826.16;5031989;28;20460;-51
2022/11/10 10:53:28;;;;;;;43.50;39.47;;;;;;;13.03;100.00;101829.94;5031912;28;20529;-53
2022/11/10 10:56:01;;;;;;;43.20;39.50;;;;;;;13.14;100.00;101821.47;5031615;28;20495;-46
2022/11/10 10:58:30;;;;;;;42.03;38.57;;;;;;;13.19;100.00;101809.19;5032033;28;20782;-48
2022/11/10 11:01:04;;;;;;;44.70;40.90;;;;;;;13.18;100.00;101812.03;5031352;28;21009;-47
2022/11/10 11:03:42;;;;;;;43.20;39.77;;;;;;;13.19;100.00;101811.84;5032637;28;20483;-46
2022/11/10 11:06:20;;;;;;;44.40;40.53;;;;;;;13.18;100.00;101814.72;5031438;28;20467;-47
2022/11/10 11:08:59;;;;;;;43.53;39.30;;;;;;;13.14;100.00;101813.44;5031809;28;20428;-50
2022/11/10 11:11:30;;;;;;;43.30;38.90;;;;;;;13.22;100.00;101816.00;5031396;28;20460;-47
2022/11/10 11:14:15;;;;;;;43.60;39.80;;;;;;;13.28;100.00;101826.81;5032026;28;20479;-46
2022/11/10 11:16:47;;;;;;;41.80;38.50;;;;;;;13.37;100.00;101819.47;5031688;28;20482;-46
2022/11/10 11:19:16;;;;;;;41.80;38.57;;;;;;;13.44;100.00;101828.41;5031718;28;20846;-49
2022/11/10 11:22:03;;;;;;;43.40;39.67;;;;;;;13.38;100.00;101817.63;5022580;28;20989;-46
2022/11/10 11:24:37;;;;;;;42.77;38.73;;;;;;;13.46;100.00;101823.72;5029323;28;20452;-50
2022/11/10 11:27:15;;;;;;;41.23;37.90;;;;;;;13.45;100.00;101834.59;5031757;28;20433;-48
2022/11/10 11:30:02;;;;;;;41.33;37.80;;;;;;;13.45;100.00;101842.63;5031654;28;20813;-48
2022/11/10 11:32:50;;;;;;;41.17;37.30;;;;;;;13.39;100.00;101843.41;5031103;28;20456;-46
2022/11/10 11:35:24;;;;;;;41.83;38.40;;;;;;;13.30;100.00;101848.03;5031084;28;20520;-48